Hlavní strana
METAR-TAF:

METAR-TAF

Letiště :

Gafsa, Tunisko

zeměpisná šířka: 34-25N, zeměpisná délka: 008-49E, výška: 313 m

Aktuální stav počasí

Zpráva byla vytvořena před 34 minutami, v 02:00 UTC
Severoseverovýchodní vítr 10 kt
Teplota 12°C
Vlhkost vzduchu 82%
Tlak 1019 hPa

METAR: DTTF 060200Z AUTO 02010KT NCD 12/09 Q1019

Čas: 03:34 (02:34 UTC)

Předpověď počasí

Zpráva byla vytvořena před 5 hodinami a 34 minutami, v 21:00 UTC
Předpověď platná od 05 v 22 UTC do 06 v 07 UTC
vítr z různých směrů 2 kt
Viditelnost 10 km a více
Skoro jasno ve výšce 2600 ft

TAF: DTTF 052100Z 0522/0607 VRB02KT 9999 FEW026

Stav a předpovědi počasí z více než 4 000 letišť (zprávy METAR a TAF).

Červené a žluté tečky na mapě představují dostupné meteorologické stanice.

Když kurzor umístíte na tečku, zobrazí se název stanice.

Pak kliknutím zobrazíte stav a předpověď počasí.

Chcete-li změnit mapu, kliknutím na zelené tlačítko se znaménkem +mapu přiblížíte, kliknutím na zelené tlačítko se znaménkem – mapu oddálíte a kliknutím na zelené šipky přejdete na sousední mapy.


METAR-TAF: